Time,TemperatureF,DewpointF,PressureIn,WindDirection,WindDirectionDegrees,WindSpeedMPH,WindSpeedGustMPH,Humidity,HourlyPrecipIn,Conditions,Clouds,dailyrainin,SoftwareType,DateUTC
2013-03-13 00:07:00,29.1,27.0,30.13,SE,142,0.0,1.0,92,0.00,,,0.03,weatherlink.com 1.10,2013-03-13 04:07:00,
2013-03-13 00:22:00,29.2,28.0,30.13,SE,134,0.0,2.0,93,0.00,,,0.03,weatherlink.com 1.10,2013-03-13 04:22:00,
2013-03-13 00:37:00,30.1,28.0,30.13,SE,141,2.0,4.0,91,0.00,,,0.03,weatherlink.com 1.10,2013-03-13 04:37:00,
2013-03-13 00:52:00,31.9,29.0,30.13,SE,132,2.0,6.0,88,0.00,,,0.03,weatherlink.com 1.10,2013-03-13 04:52:00,
2013-03-13 01:07:00,33.7,29.0,30.13,South,170,1.0,6.0,83,0.00,,,0.03,weatherlink.com 1.10,2013-03-13 05:07:00,
2013-03-13 01:22:00,34.7,29.0,30.13,SE,124,0.0,7.0,78,0.00,,,0.03,weatherlink.com 1.10,2013-03-13 05:22:00,
2013-03-13 01:37:00,35.3,28.0,30.14,WSW,239,1.0,7.0,76,0.00,,,0.03,weatherlink.com 1.10,2013-03-13 05:37:00,
2013-03-13 01:52:00,35.5,28.0,30.13,SW,236,2.0,8.0,74,0.00,,,0.03,weatherlink.com 1.10,2013-03-13 05:52:00,
2013-03-13 02:09:00,35.6,27.0,30.14,SSE,163,0.0,9.0,70,0.00,,,0.03,weatherlink.com 1.10,2013-03-13 06:09:00,
2013-03-13 02:22:00,35.8,26.0,30.14,SW,231,3.0,8.0,67,0.00,,,0.03,weatherlink.com 1.10,2013-03-13 06:22:00,
2013-03-13 02:52:00,35.4,25.0,30.14,East,79,0.0,8.0,66,0.00,,,0.03,weatherlink.com 1.10,2013-03-13 06:52:00,
2013-03-13 03:07:00,35.1,25.0,30.13,NNE,26,2.0,5.0,67,0.00,,,0.03,weatherlink.com 1.10,2013-03-13 07:07:00,
2013-03-13 03:22:00,35.2,25.0,30.13,WNW,291,1.0,6.0,66,0.00,,,0.00,weatherlink.com 1.10,2013-03-13 07:22:00,
2013-03-13 03:40:00,34.9,24.0,30.13,SW,235,0.0,4.0,64,0.00,,,0.00,weatherlink.com 1.10,2013-03-13 07:40:00,
2013-03-13 03:53:00,34.5,23.0,30.13,SSE,162,2.0,4.0,64,0.00,,,0.00,weatherlink.com 1.10,2013-03-13 07:53:00,
2013-03-13 04:23:00,33.9,24.0,30.12,SSE,159,0.0,2.0,66,0.00,,,0.00,weatherlink.com 1.10,2013-03-13 08:23:00,
2013-03-13 04:38:00,33.2,23.0,30.11,ESE,103,0.0,1.0,67,0.00,,,0.00,weatherlink.com 1.10,2013-03-13 08:38:00,
2013-03-13 04:54:00,32.6,23.0,30.11,SSW,203,0.0,1.0,68,0.00,,,0.00,weatherlink.com 1.10,2013-03-13 08:54:00,
2013-03-13 05:08:00,31.7,24.0,30.11,SSW,200,0.0,1.0,72,0.00,,,0.00,weatherlink.com 1.10,2013-03-13 09:08:00,
2013-03-13 05:23:00,31.7,23.0,30.12,WSW,238,2.0,2.0,71,0.00,,,0.00,weatherlink.com 1.10,2013-03-13 09:23:00,
2013-03-13 05:38:00,32.7,25.0,30.12,WNW,291,1.0,3.0,72,0.00,,,0.00,weatherlink.com 1.10,2013-03-13 09:38:00,
2013-03-13 05:54:00,33.5,26.0,30.11,NW,312,0.0,4.0,73,0.00,,,0.00,weatherlink.com 1.10,2013-03-13 09:54:00,
2013-03-13 06:09:00,33.6,26.0,30.11,West,278,0.0,2.0,73,0.00,,,0.00,weatherlink.com 1.10,2013-03-13 10:09:00,
2013-03-13 06:24:00,33.5,26.0,30.11,ESE,121,0.0,3.0,74,0.00,,,0.00,weatherlink.com 1.10,2013-03-13 10:24:00,
2013-03-13 06:39:00,33.5,27.0,30.12,SE,136,0.0,8.0,76,0.00,,,0.00,weatherlink.com 1.10,2013-03-13 10:39:00,
2013-03-13 06:54:00,32.7,28.0,30.13,SW,221,1.0,6.0,84,0.00,,,0.00,weatherlink.com 1.10,2013-03-13 10:54:00,
2013-03-13 07:09:00,31.7,29.0,30.12,SSW,200,1.0,4.0,88,0.00,,,0.00,weatherlink.com 1.10,2013-03-13 11:09:00,
2013-03-13 07:24:00,31.3,29.0,30.13,SSE,165,0.0,2.0,89,0.00,,,0.00,weatherlink.com 1.10,2013-03-13 11:24:00,
2013-03-13 07:39:00,31.2,29.0,30.13,South,172,0.0,2.0,90,0.00,,,0.00,weatherlink.com 1.10,2013-03-13 11:39:00,
2013-03-13 07:54:00,31.3,29.0,30.13,SSE,167,1.0,3.0,90,0.00,,,0.00,weatherlink.com 1.10,2013-03-13 11:54:00,
2013-03-13 08:09:00,31.0,29.0,30.13,SW,219,0.0,3.0,90,0.00,,,0.00,weatherlink.com 1.10,2013-03-13 12:09:00,
2013-03-13 08:39:00,31.3,29.0,30.14,SSW,204,2.0,6.0,91,0.00,,,0.00,weatherlink.com 1.10,2013-03-13 12:39:00,
2013-03-13 08:54:00,31.3,29.0,30.14,SSW,197,2.0,3.0,91,0.00,,,0.00,weatherlink.com 1.10,2013-03-13 12:54:00,
2013-03-13 09:09:00,31.7,29.0,30.14,WSW,253,0.0,3.0,90,0.00,,,0.00,weatherlink.com 1.10,2013-03-13 13:09:00,
2013-03-13 09:24:00,32.3,29.0,30.14,SSW,202,3.0,9.0,86,0.00,,,0.00,weatherlink.com 1.10,2013-03-13 13:24:00,
2013-03-13 09:39:00,33.2,29.0,30.14,SSW,193,2.0,11.0,84,0.00,,,0.00,weatherlink.com 1.10,2013-03-13 13:39:00,
2013-03-13 09:54:00,33.2,29.0,30.14,SSW,212,4.0,10.0,83,0.00,,,0.00,weatherlink.com 1.10,2013-03-13 13:54:00,
2013-03-13 10:09:00,31.2,29.0,30.16,East,96,0.0,8.0,91,0.00,,,0.00,weatherlink.com 1.10,2013-03-13 14:09:00,
2013-03-13 10:24:00,30.5,28.0,30.17,SSW,208,4.0,8.0,91,0.00,,,0.00,weatherlink.com 1.10,2013-03-13 14:24:00,
2013-03-13 10:39:00,31.0,28.0,30.17,South,173,3.0,10.0,87,0.00,,,0.00,weatherlink.com 1.10,2013-03-13 14:39:00,
2013-03-13 10:54:00,31.7,26.0,30.17,WNW,285,2.0,9.0,80,0.00,,,0.00,weatherlink.com 1.10,2013-03-13 14:54:00,
2013-03-13 11:09:00,32.2,26.0,30.18,SSW,198,1.0,9.0,78,0.00,,,0.00,weatherlink.com 1.10,2013-03-13 15:09:00,
2013-03-13 11:24:00,33.2,26.0,30.18,NNE,20,10.0,10.0,76,0.00,,,0.00,weatherlink.com 1.10,2013-03-13 15:24:00,
2013-03-13 11:39:00,33.9,25.0,30.17,SW,226,3.0,17.0,71,0.00,,,0.00,weatherlink.com 1.10,2013-03-13 15:39:00,
2013-03-13 11:54:00,33.2,28.0,30.20,West,280,4.0,10.0,80,0.00,,,0.00,weatherlink.com 1.10,2013-03-13 15:54:00,
2013-03-13 12:09:00,30.0,27.0,30.20,NW,317,1.0,7.0,88,0.00,,,0.00,weatherlink.com 1.10,2013-03-13 16:09:00,
2013-03-13 12:24:00,31.3,27.0,30.20,North,354,3.0,11.0,83,0.00,,,0.00,weatherlink.com 1.10,2013-03-13 16:24:00,
2013-03-13 12:39:00,31.5,26.0,30.21,WSW,256,4.0,14.0,80,0.00,,,0.00,weatherlink.com 1.10,2013-03-13 16:39:00,
2013-03-13 12:54:00,32.0,27.0,30.21,NNW,342,4.0,12.0,80,0.00,,,0.00,weatherlink.com 1.10,2013-03-13 16:54:00,
2013-03-13 13:09:00,33.0,27.0,30.21,West,263,1.0,14.0,77,0.00,,,0.00,weatherlink.com 1.10,2013-03-13 17:09:00,
2013-03-13 13:24:00,34.0,26.0,30.21,SW,214,2.0,12.0,72,0.00,,,0.00,weatherlink.com 1.10,2013-03-13 17:24:00,
2013-03-13 13:39:00,34.1,26.0,30.21,WNW,295,3.0,9.0,71,0.00,,,0.00,weatherlink.com 1.10,2013-03-13 17:39:00,
2013-03-13 13:54:00,33.0,25.0,30.21,WNW,298,5.0,11.0,73,0.00,,,0.00,weatherlink.com 1.10,2013-03-13 17:54:00,
2013-03-13 14:09:00,33.1,26.0,30.21,SSW,207,2.0,12.0,74,0.00,,,0.00,weatherlink.com 1.10,2013-03-13 18:09:00,
2013-03-13 14:24:00,34.0,25.0,30.21,South,174,3.0,13.0,70,0.00,,,0.00,weatherlink.com 1.10,2013-03-13 18:24:00,
2013-03-13 14:39:00,33.1,27.0,30.22,NNW,328,3.0,12.0,77,0.00,,,0.00,weatherlink.com 1.10,2013-03-13 18:39:00,
2013-03-13 14:54:00,30.0,26.0,30.22,South,186,2.0,7.0,84,0.00,,,0.00,weatherlink.com 1.10,2013-03-13 18:54:00,
2013-03-13 15:10:00,33.4,28.0,30.22,NNE,26,4.0,11.0,80,0.00,,,0.00,weatherlink.com 1.10,2013-03-13 19:10:00,
2013-03-13 15:25:00,31.6,25.0,30.22,NNW,328,3.0,16.0,78,0.00,,,0.00,weatherlink.com 1.10,2013-03-13 19:25:00,
2013-03-13 15:40:00,32.9,25.0,30.22,WSW,253,2.0,13.0,72,0.00,,,0.00,weatherlink.com 1.10,2013-03-13 19:40:00,
2013-03-13 15:54:00,32.2,21.0,30.23,WNW,286,7.0,11.0,64,0.00,,,0.00,weatherlink.com 1.10,2013-03-13 19:54:00,
2013-03-13 16:10:00,33.0,21.0,30.23,SW,224,1.0,16.0,61,0.00,,,0.00,weatherlink.com 1.10,2013-03-13 20:10:00,
2013-03-13 16:25:00,34.3,22.0,30.23,NNW,329,5.0,11.0,61,0.00,,,0.00,weatherlink.com 1.10,2013-03-13 20:25:00,
2013-03-13 16:40:00,32.7,21.0,30.24,NNW,328,2.0,10.0,63,0.00,,,0.00,weatherlink.com 1.10,2013-03-13 20:40:00,
2013-03-13 16:55:00,33.1,20.0,30.25,SW,224,1.0,10.0,58,0.00,,,0.00,weatherlink.com 1.10,2013-03-13 20:55:00,
2013-03-13 17:10:00,34.8,20.0,30.25,WNW,290,3.0,12.0,55,0.01,,,0.01,weatherlink.com 1.10,2013-03-13 21:10:00,
2013-03-13 17:25:00,33.1,19.0,30.26,West,280,5.0,10.0,56,0.01,,,0.01,weatherlink.com 1.10,2013-03-13 21:25:00,
2013-03-13 17:40:00,31.6,18.0,30.27,NNW,328,5.0,10.0,57,0.01,,,0.01,weatherlink.com 1.10,2013-03-13 21:40:00,
2013-03-13 17:55:00,31.9,18.0,30.27,East,80,0.0,11.0,58,0.01,,,0.01,weatherlink.com 1.10,2013-03-13 21:55:00,
2013-03-13 18:10:00,31.5,18.0,30.28,WNW,297,4.0,11.0,57,0.00,,,0.01,weatherlink.com 1.10,2013-03-13 22:10:00,
2013-03-13 18:25:00,30.8,17.0,30.28,WNW,291,0.0,11.0,57,0.00,,,0.01,weatherlink.com 1.10,2013-03-13 22:25:00,
2013-03-13 18:40:00,30.9,17.0,30.28,NE,40,0.0,9.0,57,0.00,,,0.01,weatherlink.com 1.10,2013-03-13 22:40:00,
2013-03-13 18:55:00,30.6,17.0,30.29,NNW,330,0.0,10.0,58,0.00,,,0.01,weatherlink.com 1.10,2013-03-13 22:55:00,
2013-03-13 19:10:00,30.2,17.0,30.30,West,267,1.0,5.0,59,0.00,,,0.01,weatherlink.com 1.10,2013-03-13 23:10:00,
2013-03-13 19:25:00,29.8,18.0,30.31,North,9,4.0,7.0,61,0.00,,,0.01,weatherlink.com 1.10,2013-03-13 23:25:00,
2013-03-13 19:40:00,29.2,18.0,30.32,NE,40,6.0,8.0,62,0.00,,,0.01,weatherlink.com 1.10,2013-03-13 23:40:00,
2013-03-13 19:55:00,28.6,17.0,30.32,WNW,290,3.0,9.0,63,0.00,,,0.01,weatherlink.com 1.10,2013-03-13 23:55:00,
2013-03-13 20:10:00,28.6,18.0,30.32,SE,139,0.0,11.0,64,0.00,,,0.01,weatherlink.com 1.10,2013-03-14 00:10:00,
2013-03-13 20:25:00,28.4,18.0,30.33,WNW,290,0.0,6.0,65,0.00,,,0.01,weatherlink.com 1.10,2013-03-14 00:25:00,
2013-03-13 20:40:00,28.1,18.0,30.34,NNE,13,7.0,7.0,67,0.00,,,0.01,weatherlink.com 1.10,2013-03-14 00:40:00,
2013-03-13 20:55:00,28.0,18.0,30.34,WNW,283,1.0,7.0,66,0.00,,,0.01,weatherlink.com 1.10,2013-03-14 00:55:00,
2013-03-13 21:10:00,28.0,17.0,30.34,WNW,296,1.0,5.0,64,0.00,,,0.01,weatherlink.com 1.10,2013-03-14 01:10:00,
2013-03-13 21:25:00,28.0,16.0,30.34,NNW,336,2.0,8.0,62,0.00,,,0.01,weatherlink.com 1.10,2013-03-14 01:25:00,
2013-03-13 21:40:00,27.9,17.0,30.35,NE,38,7.0,8.0,63,0.00,,,0.01,weatherlink.com 1.10,2013-03-14 01:40:00,
2013-03-13 21:55:00,27.8,16.0,30.35,WSW,254,0.0,8.0,62,0.00,,,0.01,weatherlink.com 1.10,2013-03-14 01:55:00,
2013-03-13 22:10:00,27.8,17.0,30.35,South,189,3.0,7.0,63,0.00,,,0.01,weatherlink.com 1.10,2013-03-14 02:10:00,
2013-03-13 22:25:00,27.6,16.0,30.35,SW,229,3.0,5.0,62,0.00,,,0.01,weatherlink.com 1.10,2013-03-14 02:25:00,
2013-03-13 22:40:00,27.6,16.0,30.35,WNW,291,2.0,7.0,61,0.00,,,0.01,weatherlink.com 1.10,2013-03-14 02:40:00,
2013-03-13 22:55:00,27.6,17.0,30.36,East,101,0.0,4.0,64,0.00,,,0.01,weatherlink.com 1.10,2013-03-14 02:55:00,
2013-03-13 23:10:00,27.5,17.0,30.36,WNW,293,2.0,7.0,65,0.00,,,0.01,weatherlink.com 1.10,2013-03-14 03:10:00,
2013-03-13 23:40:00,27.2,17.0,30.36,West,269,2.0,7.0,66,0.00,,,0.01,weatherlink.com 1.10,2013-03-14 03:40:00,
2013-03-13 23:55:00,27.0,17.0,30.37,NW,312,0.0,5.0,67,0.00,,,0.01,weatherlink.com 1.10,2013-03-14 03:55:00,